sensor_id;sensor_type;location;lat;lon;timestamp;pressure;altitude;pressure_sealevel;temperature;humidity
54872;BME280;43914;57.680;11.982;2023-04-06T00:01:31;101238.97;;;-0.50;100.00
54872;BME280;43914;57.680;11.982;2023-04-06T00:03:57;101236.69;;;-0.53;100.00
54872;BME280;43914;57.680;11.982;2023-04-06T00:06:22;101234.33;;;-0.57;100.00
54872;BME280;43914;57.680;11.982;2023-04-06T00:08:47;101239.71;;;-0.62;100.00
54872;BME280;43914;57.680;11.982;2023-04-06T00:11:13;101233.55;;;-0.65;100.00
54872;BME280;43914;57.680;11.982;2023-04-06T00:13:38;101232.61;;;-0.66;100.00
54872;BME280;43914;57.680;11.982;2023-04-06T00:16:05;101229.77;;;-0.69;100.00
54872;BME280;43914;57.680;11.982;2023-04-06T00:18:31;101229.69;;;-0.73;100.00
54872;BME280;43914;57.680;11.982;2023-04-06T00:20:57;101226.31;;;-0.78;100.00
54872;BME280;43914;57.680;11.982;2023-04-06T00:23:23;101229.47;;;-0.81;100.00
54872;BME280;43914;57.680;11.982;2023-04-06T00:25:48;101228.70;;;-0.82;100.00
54872;BME280;43914;57.680;11.982;2023-04-06T00:28:14;101226.22;;;-0.85;100.00
54872;BME280;43914;57.680;11.982;2023-04-06T00:30:40;101227.54;;;-0.89;100.00
54872;BME280;43914;57.680;11.982;2023-04-06T00:33:06;101228.11;;;-0.90;100.00
54872;BME280;43914;57.680;11.982;2023-04-06T00:35:32;101226.83;;;-0.92;100.00
54872;BME280;43914;57.680;11.982;2023-04-06T00:37:57;101226.06;;;-0.93;100.00
54872;BME280;43914;57.680;11.982;2023-04-06T00:40:23;101224.17;;;-0.94;100.00
54872;BME280;43914;57.680;11.982;2023-04-06T00:42:48;101220.26;;;-0.99;100.00
54872;BME280;43914;57.680;11.982;2023-04-06T00:45:14;101221.79;;;-0.98;100.00
54872;BME280;43914;57.680;11.982;2023-04-06T00:47:40;101216.50;;;-1.01;100.00
54872;BME280;43914;57.680;11.982;2023-04-06T00:50:05;101214.98;;;-1.05;100.00
54872;BME280;43914;57.680;11.982;2023-04-06T00:52:31;101215.15;;;-1.08;100.00
54872;BME280;43914;57.680;11.982;2023-04-06T00:54:57;101211.52;;;-1.08;100.00
54872;BME280;43914;57.680;11.982;2023-04-06T00:57:22;101210.58;;;-1.10;100.00
54872;BME280;43914;57.680;11.982;2023-04-06T00:59:48;101209.88;;;-1.13;100.00
54872;BME280;43914;57.680;11.982;2023-04-06T01:02:14;101205.99;;;-1.16;100.00
54872;BME280;43914;57.680;11.982;2023-04-06T01:04:42;101210.05;;;-1.19;100.00
54872;BME280;43914;57.680;11.982;2023-04-06T01:07:07;101206.10;;;-1.21;100.00
54872;BME280;43914;57.680;11.982;2023-04-06T01:09:33;101205.14;;;-1.22;100.00
54872;BME280;43914;57.680;11.982;2023-04-06T01:11:58;101200.51;;;-1.23;100.00
54872;BME280;43914;57.680;11.982;2023-04-06T01:14:25;101201.27;;;-1.22;100.00
54872;BME280;43914;57.680;11.982;2023-04-06T01:16:52;101198.44;;;-1.25;100.00
54872;BME280;43914;57.680;11.982;2023-04-06T01:19:17;101200.98;;;-1.26;100.00
54872;BME280;43914;57.680;11.982;2023-04-06T01:21:43;101198.03;;;-1.29;100.00
54872;BME280;43914;57.680;11.982;2023-04-06T01:24:09;101198.91;;;-1.29;100.00
54872;BME280;43914;57.680;11.982;2023-04-06T01:26:35;101197.80;;;-1.32;100.00
54872;BME280;43914;57.680;11.982;2023-04-06T01:29:02;101197.73;;;-1.33;100.00
54872;BME280;43914;57.680;11.982;2023-04-06T01:31:28;101190.58;;;-1.37;100.00
54872;BME280;43914;57.680;11.982;2023-04-06T01:33:54;101193.95;;;-1.34;100.00
54872;BME280;43914;57.680;11.982;2023-04-06T01:36:20;101194.02;;;-1.36;100.00
54872;BME280;43914;57.680;11.982;2023-04-06T01:38:45;101190.85;;;-1.36;100.00
54872;BME280;43914;57.680;11.982;2023-04-06T01:41:11;101190.77;;;-1.40;100.00
54872;BME280;43914;57.680;11.982;2023-04-06T01:43:37;101193.02;;;-1.39;100.00
54872;BME280;43914;57.680;11.982;2023-04-06T01:46:03;101189.96;;;-1.41;100.00
54872;BME280;43914;57.680;11.982;2023-04-06T01:48:29;101191.70;;;-1.40;100.00
54872;BME280;43914;57.680;11.982;2023-04-06T01:50:55;101188.16;;;-1.40;100.00
54872;BME280;43914;57.680;11.982;2023-04-06T01:53:21;101186.42;;;-1.40;100.00
54872;BME280;43914;57.680;11.982;2023-04-06T01:55:47;101186.98;;;-1.41;100.00
54872;BME280;43914;57.680;11.982;2023-04-06T01:58:13;101186.56;;;-1.46;100.00
54872;BME280;43914;57.680;11.982;2023-04-06T02:00:39;101186.31;;;-1.50;100.00
54872;BME280;43914;57.680;11.982;2023-04-06T02:03:05;101185.79;;;-1.53;100.00
54872;BME280;43914;57.680;11.982;2023-04-06T02:05:32;101186.90;;;-1.54;100.00
54872;BME280;43914;57.680;11.982;2023-04-06T02:08:04;101185.86;;;-1.54;100.00
54872;BME280;43914;57.680;11.982;2023-04-06T02:10:31;101185.86;;;-1.54;100.00
54872;BME280;43914;57.680;11.982;2023-04-06T02:12:57;101189.88;;;-1.54;100.00
54872;BME280;43914;57.680;11.982;2023-04-06T02:15:22;101188.45;;;-1.57;100.00
54872;BME280;43914;57.680;11.982;2023-04-06T02:17:48;101186.40;;;-1.57;100.00
54872;BME280;43914;57.680;11.982;2023-04-06T02:20:14;101185.66;;;-1.57;100.00
54872;BME280;43914;57.680;11.982;2023-04-06T02:22:39;101184.93;;;-1.57;100.00
54872;BME280;43914;57.680;11.982;2023-04-06T02:25:05;101183.91;;;-1.57;100.00
54872;BME280;43914;57.680;11.982;2023-04-06T02:27:31;101183.31;;;-1.59;100.00
54872;BME280;43914;57.680;11.982;2023-04-06T02:29:56;101184.17;;;-1.59;100.00
54872;BME280;43914;57.680;11.982;2023-04-06T02:32:22;101179.45;;;-1.59;100.00
54872;BME280;43914;57.680;11.982;2023-04-06T02:34:47;101183.19;;;-1.57;100.00
54872;BME280;43914;57.680;11.982;2023-04-06T02:37:13;101184.66;;;-1.55;100.00
54872;BME280;43914;57.680;11.982;2023-04-06T02:39:38;101184.45;;;-1.54;100.00
54872;BME280;43914;57.680;11.982;2023-04-06T02:42:04;101185.44;;;-1.53;100.00
54872;BME280;43914;57.680;11.982;2023-04-06T02:44:30;101181.85;;;-1.52;100.00
54872;BME280;43914;57.680;11.982;2023-04-06T02:46:55;101184.48;;;-1.49;100.00
54872;BME280;43914;57.680;11.982;2023-04-06T02:49:20;101184.64;;;-1.49;100.00
54872;BME280;43914;57.680;11.982;2023-04-06T02:51:46;101178.97;;;-1.48;100.00
54872;BME280;43914;57.680;11.982;2023-04-06T02:54:12;101180.61;;;-1.47;100.00
54872;BME280;43914;57.680;11.982;2023-04-06T02:56:37;101178.92;;;-1.45;100.00
54872;BME280;43914;57.680;11.982;2023-04-06T02:59:03;101180.56;;;-1.42;100.00
54872;BME280;43914;57.680;11.982;2023-04-06T03:01:28;101179.67;;;-1.42;100.00
54872;BME280;43914;57.680;11.982;2023-04-06T03:03:53;101176.29;;;-1.41;100.00
54872;BME280;43914;57.680;11.982;2023-04-06T03:06:19;101179.02;;;-1.40;100.00
54872;BME280;43914;57.680;11.982;2023-04-06T03:08:45;101181.83;;;-1.40;100.00
54872;BME280;43914;57.680;11.982;2023-04-06T03:11:10;101185.63;;;-1.39;100.00
54872;BME280;43914;57.680;11.982;2023-04-06T03:13:36;101183.80;;;-1.41;100.00
54872;BME280;43914;57.680;11.982;2023-04-06T03:16:04;101185.00;;;-1.40;100.00
54872;BME280;43914;57.680;11.982;2023-04-06T03:18:30;101183.73;;;-1.42;100.00
54872;BME280;43914;57.680;11.982;2023-04-06T03:20:55;101187.62;;;-1.43;100.00
54872;BME280;43914;57.680;11.982;2023-04-06T03:23:21;101188.86;;;-1.43;100.00
54872;BME280;43914;57.680;11.982;2023-04-06T03:25:46;101192.91;;;-1.43;100.00
54872;BME280;43914;57.680;11.982;2023-04-06T03:28:12;101190.20;;;-1.45;100.00
54872;BME280;43914;57.680;11.982;2023-04-06T03:30:37;101190.54;;;-1.45;100.00
54872;BME280;43914;57.680;11.982;2023-04-06T03:33:03;101191.38;;;-1.47;100.00
54872;BME280;43914;57.680;11.982;2023-04-06T03:35:29;101193.98;;;-1.49;100.00
54872;BME280;43914;57.680;11.982;2023-04-06T03:37:54;101193.38;;;-1.51;100.00
54872;BME280;43914;57.680;11.982;2023-04-06T03:40:20;101196.48;;;-1.50;100.00
54872;BME280;43914;57.680;11.982;2023-04-06T03:42:45;101194.61;;;-1.48;100.00
54872;BME280;43914;57.680;11.982;2023-04-06T03:45:11;101196.66;;;-1.47;100.00
54872;BME280;43914;57.680;11.982;2023-04-06T03:47:38;101198.43;;;-1.48;100.00
54872;BME280;43914;57.680;11.982;2023-04-06T03:50:04;101201.33;;;-1.46;100.00
54872;BME280;43914;57.680;11.982;2023-04-06T03:52:29;101204.90;;;-1.47;100.00
54872;BME280;43914;57.680;11.982;2023-04-06T03:54:55;101205.56;;;-1.49;100.00
54872;BME280;43914;57.680;11.982;2023-04-06T03:57:21;101203.60;;;-1.49;100.00
54872;BME280;43914;57.680;11.982;2023-04-06T03:59:46;101206.77;;;-1.49;100.00
54872;BME280;43914;57.680;11.982;2023-04-06T04:02:11;101208.75;;;-1.50;100.00
54872;BME280;43914;57.680;11.982;2023-04-06T04:04:37;101207.98;;;-1.51;100.00
54872;BME280;43914;57.680;11.982;2023-04-06T04:07:03;101203.55;;;-1.53;100.00
54872;BME280;43914;57.680;11.982;2023-04-06T04:09:28;101206.13;;;-1.55;100.00
54872;BME280;43914;57.680;11.982;2023-04-06T04:11:54;101203.56;;;-1.57;100.00
54872;BME280;43914;57.680;11.982;2023-04-06T04:14:19;101204.77;;;-1.56;100.00
54872;BME280;43914;57.680;11.982;2023-04-06T04:16:45;101210.85;;;-1.58;100.00
54872;BME280;43914;57.680;11.982;2023-04-06T04:19:10;101210.88;;;-1.58;100.00
54872;BME280;43914;57.680;11.982;2023-04-06T04:21:43;101210.59;;;-1.60;100.00
54872;BME280;43914;57.680;11.982;2023-04-06T04:24:10;101212.63;;;-1.61;100.00
54872;BME280;43914;57.680;11.982;2023-04-06T04:26:36;101212.77;;;-1.64;100.00
54872;BME280;43914;57.680;11.982;2023-04-06T04:29:01;101208.77;;;-1.65;100.00
54872;BME280;43914;57.680;11.982;2023-04-06T04:31:27;101210.44;;;-1.63;100.00
54872;BME280;43914;57.680;11.982;2023-04-06T04:33:52;101210.30;;;-1.61;100.00
54872;BME280;43914;57.680;11.982;2023-04-06T04:36:18;101206.85;;;-1.62;100.00
54872;BME280;43914;57.680;11.982;2023-04-06T04:38:43;101206.27;;;-1.61;100.00
54872;BME280;43914;57.680;11.982;2023-04-06T04:41:09;101207.47;;;-1.57;100.00
54872;BME280;43914;57.680;11.982;2023-04-06T04:43:34;101209.73;;;-1.57;100.00
54872;BME280;43914;57.680;11.982;2023-04-06T04:46:00;101207.36;;;-1.58;100.00
54872;BME280;43914;57.680;11.982;2023-04-06T04:48:26;101211.64;;;-1.56;100.00
54872;BME280;43914;57.680;11.982;2023-04-06T04:50:51;101210.99;;;-1.55;100.00
54872;BME280;43914;57.680;11.982;2023-04-06T04:53:17;101212.69;;;-1.54;100.00
54872;BME280;43914;57.680;11.982;2023-04-06T04:55:42;101208.74;;;-1.52;100.00
54872;BME280;43914;57.680;11.982;2023-04-06T04:58:08;101213.58;;;-1.42;100.00
54872;BME280;43914;57.680;11.982;2023-04-06T05:00:36;101207.33;;;-1.37;100.00
54872;BME280;43914;57.680;11.982;2023-04-06T05:03:03;101211.83;;;-1.33;100.00
54872;BME280;43914;57.680;11.982;2023-04-06T05:05:29;101215.30;;;-1.30;100.00
54872;BME280;43914;57.680;11.982;2023-04-06T05:07:55;101216.96;;;-1.25;100.00
54872;BME280;43914;57.680;11.982;2023-04-06T05:10:20;101219.33;;;-1.21;100.00
54872;BME280;43914;57.680;11.982;2023-04-06T05:12:46;101217.59;;;-1.16;100.00
54872;BME280;43914;57.680;11.982;2023-04-06T05:15:11;101219.49;;;-1.12;100.00
54872;BME280;43914;57.680;11.982;2023-04-06T05:17:37;101216.47;;;-1.12;100.00
54872;BME280;43914;57.680;11.982;2023-04-06T05:20:03;101216.66;;;-1.09;100.00
54872;BME280;43914;57.680;11.982;2023-04-06T05:22:28;101217.52;;;-1.09;100.00
54872;BME280;43914;57.680;11.982;2023-04-06T05:24:54;101222.65;;;-1.04;100.00
54872;BME280;43914;57.680;11.982;2023-04-06T05:27:19;101219.99;;;-1.01;100.00
54872;BME280;43914;57.680;11.982;2023-04-06T05:29:45;101219.06;;;-0.97;100.00
54872;BME280;43914;57.680;11.982;2023-04-06T05:32:11;101215.00;;;-0.91;100.00
54872;BME280;43914;57.680;11.982;2023-04-06T05:34:36;101215.13;;;-0.88;100.00
54872;BME280;43914;57.680;11.982;2023-04-06T05:37:02;101214.66;;;-0.92;100.00
54872;BME280;43914;57.680;11.982;2023-04-06T05:39:27;101218.55;;;-0.89;100.00
54872;BME280;43914;57.680;11.982;2023-04-06T05:41:53;101221.80;;;-0.88;100.00
54872;BME280;43914;57.680;11.982;2023-04-06T05:44:19;101223.76;;;-0.82;100.00
54872;BME280;43914;57.680;11.982;2023-04-06T05:46:44;101220.19;;;-0.79;100.00
54872;BME280;43914;57.680;11.982;2023-04-06T05:49:10;101220.88;;;-0.76;100.00
54872;BME280;43914;57.680;11.982;2023-04-06T05:51:35;101220.20;;;-0.70;100.00
54872;BME280;43914;57.680;11.982;2023-04-06T05:54:01;101220.86;;;-0.64;100.00
54872;BME280;43914;57.680;11.982;2023-04-06T05:56:26;101223.79;;;-0.63;100.00
54872;BME280;43914;57.680;11.982;2023-04-06T05:58:52;101226.80;;;-0.61;100.00
54872;BME280;43914;57.680;11.982;2023-04-06T06:01:17;101224.66;;;-0.57;100.00
54872;BME280;43914;57.680;11.982;2023-04-06T06:03:43;101226.04;;;-0.54;100.00
54872;BME280;43914;57.680;11.982;2023-04-06T06:06:08;101228.92;;;-0.45;100.00
54872;BME280;43914;57.680;11.982;2023-04-06T06:08:33;101229.20;;;-0.33;100.00
54872;BME280;43914;57.680;11.982;2023-04-06T06:10:59;101229.86;;;-0.26;100.00
54872;BME280;43914;57.680;11.982;2023-04-06T06:13:25;101227.83;;;-0.22;100.00
54872;BME280;43914;57.680;11.982;2023-04-06T06:15:51;101230.17;;;-0.21;100.00
54872;BME280;43914;57.680;11.982;2023-04-06T06:18:16;101232.26;;;-0.20;100.00
54872;BME280;43914;57.680;11.982;2023-04-06T06:20:44;101231.31;;;-0.24;100.00
54872;BME280;43914;57.680;11.982;2023-04-06T06:23:10;101233.55;;;-0.24;100.00
54872;BME280;43914;57.680;11.982;2023-04-06T06:25:35;101236.26;;;-0.19;100.00
54872;BME280;43914;57.680;11.982;2023-04-06T06:28:01;101235.91;;;-0.17;100.00
54872;BME280;43914;57.680;11.982;2023-04-06T06:30:26;101231.69;;;-0.14;100.00
54872;BME280;43914;57.680;11.982;2023-04-06T06:32:52;101229.45;;;-0.09;100.00
54872;BME280;43914;57.680;11.982;2023-04-06T06:35:17;101230.23;;;-0.08;100.00
54872;BME280;43914;57.680;11.982;2023-04-06T06:37:43;101236.41;;;-0.06;100.00
54872;BME280;43914;57.680;11.982;2023-04-06T06:40:11;101232.67;;;-0.02;100.00
54872;BME280;43914;57.680;11.982;2023-04-06T06:42:38;101232.17;;;0.00;100.00
54872;BME280;43914;57.680;11.982;2023-04-06T06:45:06;101236.33;;;0.01;100.00
54872;BME280;43914;57.680;11.982;2023-04-06T06:47:32;101236.11;;;-0.01;100.00
54872;BME280;43914;57.680;11.982;2023-04-06T06:49:57;101235.02;;;-0.01;100.00
54872;BME280;43914;57.680;11.982;2023-04-06T06:52:23;101236.85;;;0.07;100.00
54872;BME280;43914;57.680;11.982;2023-04-06T06:54:49;101237.46;;;0.13;100.00
54872;BME280;43914;57.680;11.982;2023-04-06T06:57:15;101240.99;;;0.19;100.00
54872;BME280;43914;57.680;11.982;2023-04-06T06:59:40;101240.34;;;0.20;100.00
54872;BME280;43914;57.680;11.982;2023-04-06T07:02:06;101242.09;;;0.25;100.00
54872;BME280;43914;57.680;11.982;2023-04-06T07:04:31;101243.31;;;0.31;100.00
54872;BME280;43914;57.680;11.982;2023-04-06T07:06:57;101242.06;;;0.32;100.00
54872;BME280;43914;57.680;11.982;2023-04-06T07:09:22;101242.42;;;0.29;100.00
54872;BME280;43914;57.680;11.982;2023-04-06T07:11:48;101238.75;;;0.31;100.00
54872;BME280;43914;57.680;11.982;2023-04-06T07:14:15;101244.26;;;0.38;100.00
54872;BME280;43914;57.680;11.982;2023-04-06T07:16:41;101246.11;;;0.47;100.00
54872;BME280;43914;57.680;11.982;2023-04-06T07:19:06;101240.74;;;0.56;100.00
54872;BME280;43914;57.680;11.982;2023-04-06T07:21:32;101243.66;;;0.65;100.00
54872;BME280;43914;57.680;11.982;2023-04-06T07:23:57;101237.39;;;0.77;100.00
54872;BME280;43914;57.680;11.982;2023-04-06T07:26:22;101233.02;;;0.83;100.00
54872;BME280;43914;57.680;11.982;2023-04-06T07:28:48;101232.42;;;0.94;100.00
54872;BME280;43914;57.680;11.982;2023-04-06T07:31:13;101238.48;;;1.04;100.00
54872;BME280;43914;57.680;11.982;2023-04-06T07:33:39;101238.18;;;1.08;100.00
54872;BME280;43914;57.680;11.982;2023-04-06T07:36:05;101242.02;;;1.11;100.00
54872;BME280;43914;57.680;11.982;2023-04-06T07:38:30;101245.27;;;1.18;100.00
54872;BME280;43914;57.680;11.982;2023-04-06T07:40:56;101246.14;;;1.20;100.00
54872;BME280;43914;57.680;11.982;2023-04-06T07:43:21;101244.63;;;1.27;100.00
54872;BME280;43914;57.680;11.982;2023-04-06T07:45:47;101246.20;;;1.32;100.00
54872;BME280;43914;57.680;11.982;2023-04-06T07:48:12;101243.16;;;1.32;100.00
54872;BME280;43914;57.680;11.982;2023-04-06T07:50:38;101239.73;;;1.28;100.00
54872;BME280;43914;57.680;11.982;2023-04-06T07:53:03;101240.94;;;1.24;100.00
54872;BME280;43914;57.680;11.982;2023-04-06T07:55:29;101240.38;;;1.22;100.00
54872;BME280;43914;57.680;11.982;2023-04-06T07:57:55;101241.00;;;1.23;100.00
54872;BME280;43914;57.680;11.982;2023-04-06T08:00:20;101241.64;;;1.21;100.00
54872;BME280;43914;57.680;11.982;2023-04-06T08:02:46;101243.95;;;1.26;100.00
54872;BME280;43914;57.680;11.982;2023-04-06T08:05:12;101239.19;;;1.28;100.00
54872;BME280;43914;57.680;11.982;2023-04-06T08:07:37;101240.77;;;1.31;100.00
54872;BME280;43914;57.680;11.982;2023-04-06T08:10:03;101243.35;;;1.27;100.00
54872;BME280;43914;57.680;11.982;2023-04-06T08:12:29;101249.04;;;1.29;100.00
54872;BME280;43914;57.680;11.982;2023-04-06T08:14:55;101244.10;;;1.34;100.00
54872;BME280;43914;57.680;11.982;2023-04-06T08:17:22;101252.55;;;1.34;100.00
54872;BME280;43914;57.680;11.982;2023-04-06T08:19:47;101258.98;;;1.35;100.00
54872;BME280;43914;57.680;11.982;2023-04-06T08:22:13;101251.02;;;1.41;100.00
54872;BME280;43914;57.680;11.982;2023-04-06T08:24:38;101251.33;;;1.44;100.00
54872;BME280;43914;57.680;11.982;2023-04-06T08:27:04;101250.77;;;1.44;100.00
54872;BME280;43914;57.680;11.982;2023-04-06T08:29:30;101259.17;;;1.45;100.00
54872;BME280;43914;57.680;11.982;2023-04-06T08:31:55;101262.08;;;1.47;100.00
54872;BME280;43914;57.680;11.982;2023-04-06T08:34:21;101261.95;;;1.48;100.00
54872;BME280;43914;57.680;11.982;2023-04-06T08:36:48;101261.45;;;1.53;100.00
54872;BME280;43914;57.680;11.982;2023-04-06T08:39:13;101266.33;;;1.56;100.00
54872;BME280;43914;57.680;11.982;2023-04-06T08:41:41;101263.96;;;1.57;100.00
54872;BME280;43914;57.680;11.982;2023-04-06T08:44:07;101270.98;;;1.60;100.00
54872;BME280;43914;57.680;11.982;2023-04-06T08:46:33;101268.80;;;1.63;100.00
54872;BME280;43914;57.680;11.982;2023-04-06T08:49:01;101269.98;;;1.67;100.00
54872;BME280;43914;57.680;11.982;2023-04-06T08:51:28;101270.73;;;1.68;100.00
54872;BME280;43914;57.680;11.982;2023-04-06T08:53:56;101271.39;;;1.71;100.00
54872;BME280;43914;57.680;11.982;2023-04-06T08:56:23;101271.33;;;1.75;100.00
54872;BME280;43914;57.680;11.982;2023-04-06T08:58:50;101273.84;;;1.77;100.00
54872;BME280;43914;57.680;11.982;2023-04-06T09:01:26;101282.57;;;1.83;100.00
54872;BME280;43914;57.680;11.982;2023-04-06T09:03:55;101282.92;;;1.90;100.00
54872;BME280;43914;57.680;11.982;2023-04-06T09:06:21;101281.45;;;2.01;100.00
54872;BME280;43914;57.680;11.982;2023-04-06T09:08:47;101288.46;;;2.11;100.00
54872;BME280;43914;57.680;11.982;2023-04-06T09:11:12;101290.39;;;2.18;100.00
54872;BME280;43914;57.680;11.982;2023-04-06T09:13:49;101286.85;;;2.23;100.00
54872;BME280;43914;57.680;11.982;2023-04-06T09:16:15;101284.64;;;2.29;100.00
54872;BME280;43914;57.680;11.982;2023-04-06T09:18:41;101284.52;;;2.35;100.00
54872;BME280;43914;57.680;11.982;2023-04-06T09:21:08;101288.48;;;2.46;100.00
54872;BME280;43914;57.680;11.982;2023-04-06T09:23:35;101287.23;;;2.58;100.00
54872;BME280;43914;57.680;11.982;2023-04-06T09:26:30;101289.69;;;2.68;100.00
54872;BME280;43914;57.680;11.982;2023-04-06T09:28:56;101290.66;;;2.78;100.00
54872;BME280;43914;57.680;11.982;2023-04-06T09:31:24;101293.94;;;2.83;100.00
54872;BME280;43914;57.680;11.982;2023-04-06T09:33:50;101296.48;;;2.89;100.00
54872;BME280;43914;57.680;11.982;2023-04-06T09:36:17;101300.67;;;2.93;100.00
54872;BME280;43914;57.680;11.982;2023-04-06T09:43:52;101298.33;;;3.07;100.00
54872;BME280;43914;57.680;11.982;2023-04-06T09:46:27;101301.25;;;3.08;100.00
54872;BME280;43914;57.680;11.982;2023-04-06T09:48:52;101300.43;;;3.11;100.00
54872;BME280;43914;57.680;11.982;2023-04-06T09:51:19;101304.95;;;3.10;100.00
54872;BME280;43914;57.680;11.982;2023-04-06T09:53:48;101307.58;;;3.18;100.00
54872;BME280;43914;57.680;11.982;2023-04-06T09:56:21;101303.10;;;3.23;100.00
54872;BME280;43914;57.680;11.982;2023-04-06T09:58:52;101303.02;;;3.28;100.00
54872;BME280;43914;57.680;11.982;2023-04-06T10:01:21;101298.10;;;3.32;100.00
54872;BME280;43914;57.680;11.982;2023-04-06T10:03:56;101302.27;;;3.44;100.00
54872;BME280;43914;57.680;11.982;2023-04-06T10:06:28;101302.34;;;3.59;100.00
54872;BME280;43914;57.680;11.982;2023-04-06T10:08:58;101302.98;;;3.73;100.00
54872;BME280;43914;57.680;11.982;2023-04-06T10:11:24;101299.66;;;3.81;100.00
54872;BME280;43914;57.680;11.982;2023-04-06T10:13:50;101299.05;;;3.84;100.00
54872;BME280;43914;57.680;11.982;2023-04-06T10:16:17;101299.65;;;3.95;100.00
54872;BME280;43914;57.680;11.982;2023-04-06T10:18:47;101299.31;;;4.05;100.00
54872;BME280;43914;57.680;11.982;2023-04-06T10:21:21;101297.77;;;4.15;100.00
54872;BME280;43914;57.680;11.982;2023-04-06T10:23:54;101297.73;;;4.24;100.00
54872;BME280;43914;57.680;11.982;2023-04-06T10:26:21;101298.94;;;4.33;100.00
54872;BME280;43914;57.680;11.982;2023-04-06T10:28:48;101297.17;;;4.42;100.00
54872;BME280;43914;57.680;11.982;2023-04-06T10:31:15;101295.64;;;4.49;100.00
54872;BME280;43914;57.680;11.982;2023-04-06T10:33:41;101298.84;;;4.58;100.00
54872;BME280;43914;57.680;11.982;2023-04-06T10:36:14;101298.63;;;4.69;100.00
54872;BME280;43914;57.680;11.982;2023-04-06T10:38:42;101300.05;;;4.81;100.00
54872;BME280;43914;57.680;11.982;2023-04-06T10:41:10;101299.73;;;4.89;100.00
54872;BME280;43914;57.680;11.982;2023-04-06T10:43:38;101301.79;;;4.98;100.00
54872;BME280;43914;57.680;11.982;2023-04-06T10:46:05;101303.00;;;5.07;100.00
54872;BME280;43914;57.680;11.982;2023-04-06T10:48:39;101301.19;;;5.17;100.00
54872;BME280;43914;57.680;11.982;2023-04-06T10:51:16;101300.41;;;5.27;100.00
54872;BME280;43914;57.680;11.982;2023-04-06T10:53:44;101298.22;;;5.33;100.00
54872;BME280;43914;57.680;11.982;2023-04-06T10:56:14;101296.50;;;5.35;100.00
54872;BME280;43914;57.680;11.982;2023-04-06T10:58:51;101299.52;;;5.41;100.00
54872;BME280;43914;57.680;11.982;2023-04-06T11:01:19;101296.92;;;5.46;100.00
54872;BME280;43914;57.680;11.982;2023-04-06T11:03:48;101297.50;;;5.52;100.00
54872;BME280;43914;57.680;11.982;2023-04-06T11:06:24;101298.65;;;5.56;100.00
54872;BME280;43914;57.680;11.982;2023-04-06T11:08:51;101297.80;;;5.68;100.00
54872;BME280;43914;57.680;11.982;2023-04-06T11:11:19;101294.80;;;5.81;100.00
54872;BME280;43914;57.680;11.982;2023-04-06T11:16:15;101294.14;;;6.03;99.65
54872;BME280;43914;57.680;11.982;2023-04-06T11:18:51;101295.92;;;6.13;99.05
54872;BME280;43914;57.680;11.982;2023-04-06T11:21:31;101293.91;;;6.21;98.07
54872;BME280;43914;57.680;11.982;2023-04-06T11:26:49;101293.21;;;6.43;96.29
54872;BME280;43914;57.680;11.982;2023-04-06T11:29:18;101285.69;;;6.53;91.84
54872;BME280;43914;57.680;11.982;2023-04-06T11:31:57;101282.41;;;6.48;89.14
54872;BME280;43914;57.680;11.982;2023-04-06T11:34:24;101287.42;;;6.48;88.79
54872;BME280;43914;57.680;11.982;2023-04-06T11:37:01;101287.92;;;6.55;90.02
54872;BME280;43914;57.680;11.982;2023-04-06T11:39:29;101290.34;;;6.64;89.51
54872;BME280;43914;57.680;11.982;2023-04-06T11:42:00;101287.56;;;6.77;88.94
54872;BME280;43914;57.680;11.982;2023-04-06T11:44:32;101292.98;;;6.83;84.97
54872;BME280;43914;57.680;11.982;2023-04-06T11:46:59;101296.46;;;6.90;83.78
54872;BME280;43914;57.680;11.982;2023-04-06T11:49:28;101296.48;;;7.03;83.23
54872;BME280;43914;57.680;11.982;2023-04-06T11:51:57;101293.59;;;7.05;82.83
54872;BME280;43914;57.680;11.982;2023-04-06T11:54:49;101296.73;;;7.13;82.58
54872;BME280;43914;57.680;11.982;2023-04-06T11:57:17;101293.12;;;7.19;78.69
54872;BME280;43914;57.680;11.982;2023-04-06T11:59:43;101299.39;;;7.23;76.98
54872;BME280;43914;57.680;11.982;2023-04-06T12:02:09;101307.45;;;7.30;76.90
54872;BME280;43914;57.680;11.982;2023-04-06T12:04:34;101304.07;;;7.21;74.65
54872;BME280;43914;57.680;11.982;2023-04-06T12:07:01;101305.71;;;7.11;72.62
54872;BME280;43914;57.680;11.982;2023-04-06T12:09:27;101304.61;;;7.11;73.98
54872;BME280;43914;57.680;11.982;2023-04-06T12:11:52;101307.34;;;7.11;73.46
54872;BME280;43914;57.680;11.982;2023-04-06T12:14:18;101314.48;;;7.14;73.10
54872;BME280;43914;57.680;11.982;2023-04-06T12:16:43;101311.89;;;7.19;71.92
54872;BME280;43914;57.680;11.982;2023-04-06T12:19:09;101306.92;;;7.22;70.82
54872;BME280;43914;57.680;11.982;2023-04-06T12:21:36;101304.91;;;7.34;70.75
54872;BME280;43914;57.680;11.982;2023-04-06T12:24:03;101302.32;;;7.52;68.85
54872;BME280;43914;57.680;11.982;2023-04-06T12:26:29;101303.14;;;7.73;66.56
54872;BME280;43914;57.680;11.982;2023-04-06T12:28:55;101310.60;;;7.93;65.93
54872;BME280;43914;57.680;11.982;2023-04-06T12:31:22;101305.38;;;8.01;62.88
54872;BME280;43914;57.680;11.982;2023-04-06T12:33:51;101312.10;;;8.03;61.82
54872;BME280;43914;57.680;11.982;2023-04-06T12:36:19;101306.58;;;7.99;59.28
54872;BME280;43914;57.680;11.982;2023-04-06T12:38:48;101305.33;;;8.07;61.16
54872;BME280;43914;57.680;11.982;2023-04-06T12:41:14;101304.48;;;8.17;62.52
54872;BME280;43914;57.680;11.982;2023-04-06T12:43:43;101307.05;;;8.40;61.54